Artemis — PFCB — position and weather

sailwx.info

Track history (hours):
 
Tides and Currents Weather Stations Pressure Air Temp Water Temp Dewpoint Dewpoint Depression Visibility Wind Speed Wind Dir Waves Ship Positions

Artemis (Netherlands)

Ship's website: http://www.tallship-company.com/artemis/gb_artemis.htm

Last reported at 2018-Aug-14 07:00 UTC. Time now 2018-Aug-14 07:04 UTC.
Position N 55°33' E 012°43'.

Length 59 m; draft 3.4 m.

Type: Sailing vessel. MMSI: 244875000.

Date/timePositionNaut miles runAvg speedWind from/ knotsBaromVisibWave heightAir tempDewpointWater temp
2018-Aug-14 07:00N 55°33' E 012°43'2 4.7
2018-Aug-14 06:31N 55°30' E 012°43'2 4.7
2018-Aug-14 06:00N 55°28' E 012°43'2 4.8
2018-Aug-14 05:30N 55°25' E 012°43'2 5.0
2018-Aug-14 05:01N 55°23' E 012°42'3 5.0
2018-Aug-14 04:30N 55°20' E 012°41'2 4.7
2018-Aug-14 04:00N 55°18' E 012°41'3 5.1
2018-Aug-14 03:30N 55°16' E 012°40'2 4.9
2018-Aug-14 03:00N 55°13' E 012°40'3 5.0
2018-Aug-14 02:29N 55°11' E 012°39'2 4.9
2018-Aug-14 01:59N 55°08' E 012°38'5 4.8
2018-Aug-14 00:56N 55°03' E 012°38'2 4.6
2018-Aug-14 00:29N 55°01' E 012°37'2 4.0
2018-Aug-14 00:01N 54°59' E 012°37'6 5.0
2018-Aug-13 22:43N 54°53' E 012°32'5 4.5
2018-Aug-13 21:38N 54°50' E 012°26'1 5.2
2018-Aug-13 21:30N 54°49' E 012°25'2 4.7
2018-Aug-13 21:00N 54°48' E 012°23'2 3.6
2018-Aug-13 20:30N 54°46' E 012°20'2 4.0
2018-Aug-13 20:00N 54°45' E 012°18'2 3.6
2018-Aug-13 19:31N 54°43' E 012°17'1 2.1
2018-Aug-13 19:00N 54°42' E 012°16'1 2.4
2018-Aug-13 18:30N 54°42' E 012°14'2 4.3
2018-Aug-13 18:00N 54°40' E 012°12'3 5.6
2018-Aug-13 17:30N 54°38' E 012°10'2 3.1
2018-Aug-13 17:00N 54°36' E 012°08'2 3.4
2018-Aug-13 16:30N 54°35' E 012°08'2 4.8
2018-Aug-13 16:01N 54°32' E 012°06'2 4.6
2018-Aug-13 15:31N 54°30' E 012°05'2 4.6
2018-Aug-13 15:01N 54°28' E 012°05'2 4.7
2018-Aug-13 14:31N 54°26' E 012°04'2 4.7
2018-Aug-13 14:01N 54°23' E 012°04'2 3.6
2018-Aug-13 13:31N 54°21' E 012°05'2 3.3
2018-Aug-13 13:00N 54°20' E 012°05'2 3.3
2018-Aug-13 12:30N 54°18' E 012°05'2 3.2
2018-Aug-13 12:00N 54°17' E 012°05'2 3.6
2018-Aug-13 11:30N 54°15' E 012°05'1 2.8
2018-Aug-13 11:01N 54°13' E 012°05'1 1.5
2018-Aug-13 10:30N 54°13' E 012°06'2 4.8
2018-Aug-13 10:00N 54°10' E 012°06'3 5.4
2018-Aug-13 09:31N 54°08' E 012°06'2 4.5
2018-Aug-13 09:00N 54°06' E 012°07'0 0.0
2018-Aug-13 08:30N 54°06' E 012°07'0 0.0
2018-Aug-13 08:01N 54°06' E 012°07'0 0.0
2018-Aug-13 07:28N 54°06' E 012°07'0 0.0
2018-Aug-13 07:00N 54°06' E 012°07'0 0.0
2018-Aug-13 06:30N 54°06' E 012°07'0 0.0
2018-Aug-13 06:00N 54°06' E 012°07'0 0.0
2018-Aug-13 05:30N 54°06' E 012°07'0 0.0
2018-Aug-13 02:30N 54°06' E 012°07'0 0.0
2018-Aug-13 02:00N 54°06' E 012°07'0 0.0
2018-Aug-13 01:24N 54°06' E 012°07'0 0.0
2018-Aug-13 01:00N 54°06' E 012°07'0 0.0
2018-Aug-13 00:28N 54°06' E 012°07'0 0.0
2018-Aug-13 00:01N 54°06' E 012°07'0 0.0
2018-Aug-12 23:17N 54°06' E 012°07'0 0.0
2018-Aug-12 22:55N 54°06' E 012°07'0 0.0
2018-Aug-12 20:59N 54°06' E 012°07'0 0.0
2018-Aug-12 20:28N 54°06' E 012°07'0 0.0
2018-Aug-12 19:26N 54°06' E 012°07'0 0.0
2018-Aug-12 18:00N 54°06' E 012°07'0 0.0
2018-Aug-12 17:13N 54°06' E 012°07'0 0.0
2018-Aug-12 15:43N 54°06' E 012°07'1 3.1
2018-Aug-12 15:24N 54°06' E 012°06'2 5.8
2018-Aug-12 15:00N 54°09' E 012°06'3 6.7
2018-Aug-12 14:29N 54°12' E 012°06'1 2.2
2018-Aug-12 14:00N 54°13' E 012°06'1 1.9
2018-Aug-12 13:29N 54°12' E 012°06'2 4.3
2018-Aug-12 13:00N 54°10' E 012°06'3 5.2
2018-Aug-12 12:24N 54°07' E 012°06'2 1.2
2018-Aug-12 11:01N 54°06' E 012°07'0 0.4
2018-Aug-12 10:50N 54°06' E 012°07'2 5.0
2018-Aug-12 10:28N 54°07' E 012°06'2 4.8
2018-Aug-12 10:00N 54°09' E 012°06'3 4.7
2018-Aug-12 09:26N 54°12' E 012°04'0 0.3
2018-Aug-12 09:01N 54°12' E 012°04'2 4.0
2018-Aug-12 08:28N 54°10' E 012°06'1 3.1
2018-Aug-12 08:00N 54°09' E 012°06'2 4.4
2018-Aug-12 07:30N 54°07' E 012°06'1 1.1
2018-Aug-12 06:20N 54°06' E 012°07'0 0.0
2018-Aug-12 05:58N 54°06' E 012°07'0 0.0
2018-Aug-12 05:22N 54°06' E 012°07'0 0.0
2018-Aug-12 04:22N 54°06' E 012°07'0 0.0
2018-Aug-12 03:52N 54°06' E 012°07'0 0.0
2018-Aug-12 03:29N 54°06' E 012°07'0 0.0
2018-Aug-12 02:01N 54°06' E 012°07'0 0.0
2018-Aug-11 23:57N 54°06' E 012°07'0 0.0
2018-Aug-11 23:30N 54°06' E 012°07'0 0.0
2018-Aug-11 23:00N 54°06' E 012°07'0 0.0
2018-Aug-11 22:28N 54°06' E 012°07'0 0.0
2018-Aug-11 21:34N 54°06' E 012°07'0 0.0
2018-Aug-11 21:21N 54°06' E 012°07'0 0.3
2018-Aug-11 20:37N 54°06' E 012°07'1 3.9
2018-Aug-11 20:23N 54°06' E 012°06'2 3.0
2018-Aug-11 19:44N 54°08' E 012°06'1 3.4
2018-Aug-11 19:28N 54°09' E 012°06'1 3.1
2018-Aug-11 19:00N 54°11' E 012°06'1 1.0
2018-Aug-11 18:30N 54°10' E 012°06'2 2.9
2018-Aug-11 17:59N 54°09' E 012°06'2 4.3
2018-Aug-11 17:30N 54°07' E 012°06'1 1.8
2018-Aug-11 16:49N 54°06' E 012°07'1 1.7
2018-Aug-11 16:18N 54°06' E 012°06'2 6.3
2018-Aug-11 15:58N 54°08' E 012°06'2 4.2
2018-Aug-11 15:28N 54°10' E 012°07'0 0.6
2018-Aug-11 14:57N 54°10' E 012°07'0 0.5
2018-Aug-11 14:25N 54°10' E 012°07'1 1.7
2018-Aug-11 14:00N 54°10' E 012°06'2 3.6
2018-Aug-11 13:30N 54°12' E 012°04'3 3.3
2018-Aug-11 12:40N 54°10' E 012°07'0 0.2
2018-Aug-11 12:28N 54°10' E 012°07'1 1.4
2018-Aug-11 12:00N 54°10' E 012°06'1 0.5
2018-Aug-11 10:13N 54°10' E 012°07'0 0.0
2018-Aug-11 09:56N 54°10' E 012°07'0 0.0
2018-Aug-11 09:31N 54°10' E 012°07'0 0.0
2018-Aug-11 09:00N 54°10' E 012°07'5 0.4
2018-Aug-10 21:30N 54°06' E 012°07'4 4.9
2018-Aug-10 20:40N 54°10' E 012°06'1 6.4
2018-Aug-10 20:27N 54°11' E 012°05'2 3.0
2018-Aug-10 19:50N 54°13' E 012°07'1 1.6
2018-Aug-10 19:30N 54°13' E 012°07'1 2.0
2018-Aug-10 19:00N 54°13' E 012°06'7 2.7
2018-Aug-10 16:25N 54°06' E 012°07'0 0.0
2018-Aug-10 12:04N 54°06' E 012°07'0 0.0
2018-Aug-10 11:43N 54°06' E 012°07'0 0.0
2018-Aug-10 11:19N 54°06' E 012°07'0 0.0
2018-Aug-10 10:49N 54°06' E 012°07'0 0.0
2018-Aug-10 06:55N 54°06' E 012°07'0 0.0
2018-Aug-10 06:19N 54°06' E 012°07'0 0.0
2018-Aug-10 03:43N 54°06' E 012°07'0 0.0
2018-Aug-09 20:51N 54°06' E 012°07'0 0.0
2018-Aug-09 20:30N 54°06' E 012°07'2 3.9
2018-Aug-09 19:53N 54°08' E 012°06'2 5.2
2018-Aug-09 19:26N 54°10' E 012°06'1 2.0
2018-Aug-09 19:00N 54°11' E 012°05'1 2.0
2018-Aug-09 18:30N 54°10' E 012°06'3 4.3
2018-Aug-09 17:55N 54°08' E 012°06'1 3.0
2018-Aug-09 17:30N 54°06' E 012°06'1 0.5
2018-Aug-09 15:13N 54°06' E 012°07'0 0.0
2018-Aug-09 14:58N 54°06' E 012°07'0 0.0
2018-Aug-09 14:10N 54°06' E 012°07'0 0.0
2018-Aug-09 06:07N 54°06' E 012°07'0 0.0
2018-Aug-09 04:13N 54°06' E 012°07'0 0.0
2018-Aug-09 03:55N 54°06' E 012°07'0 0.0
2018-Aug-09 02:10N 54°06' E 012°07'0 0.0
2018-Aug-09 00:55N 54°06' E 012°07'0 0.0
2018-Aug-09 00:28N 54°06' E 012°07'0 0.0
2018-Aug-08 23:55N 54°06' E 012°07'0 0.0
2018-Aug-08 23:22N 54°06' E 012°07'0 0.0
2018-Aug-08 22:43N 54°06' E 012°07'0 0.0
2018-Aug-08 21:13N 54°06' E 012°07'0 0.1
2018-Aug-08 18:59N 54°06' E 012°07'5 5.9
2018-Aug-08 18:11N 54°10' E 012°06'1 6.9
2018-Aug-08 18:00N 54°11' E 012°05'2 4.4
2018-Aug-08 17:30N 54°13' E 012°02'4 7.9
2018-Aug-08 17:00N 54°15' E 011°57'4 8.6
2018-Aug-08 16:30N 54°17' E 011°50'4 8.4
2018-Aug-08 16:00N 54°20' E 011°44'4 8.1
2018-Aug-08 15:30N 54°22' E 011°39'4 7.9
2018-Aug-08 15:00N 54°24' E 011°33'4 7.8
2018-Aug-08 14:30N 54°27' E 011°28'1 1.8
2018-Aug-08 14:00N 54°27' E 011°27'4 7.0
2018-Aug-08 13:30N 54°29' E 011°21'4 7.1
2018-Aug-08 13:00N 54°31' E 011°16'4 7.6
2018-Aug-08 12:30N 54°33' E 011°11'4 8.3
2018-Aug-08 12:00N 54°33' E 011°04'4 7.7
2018-Aug-08 11:30N 54°32' E 010°57'4 7.6
2018-Aug-08 11:00N 54°31' E 010°51'4 7.4
2018-Aug-08 10:30N 54°31' E 010°44'4 7.7
2018-Aug-08 10:00N 54°30' E 010°38'4 8.1
2018-Aug-08 09:30N 54°29' E 010°31'4 8.0
2018-Aug-08 09:00N 54°29' E 010°24'4 7.6
2018-Aug-08 08:30N 54°28' E 010°18'4 7.1
2018-Aug-08 08:00N 54°26' E 010°14'4 7.6
2018-Aug-08 07:30N 54°22' E 010°10'1 1.1
2018-Aug-08 06:59N 54°22' E 010°09'0 0.0
2018-Aug-08 06:26N 54°22' E 010°09'0 0.0
2018-Aug-08 05:59N 54°22' E 010°09'0 0.0
2018-Aug-08 05:26N 54°22' E 010°09'0 0.0
2018-Aug-08 04:59N 54°22' E 010°09'0 0.0
2018-Aug-08 04:26N 54°22' E 010°09'0 0.0
2018-Aug-08 03:59N 54°22' E 010°09'0 0.0
2018-Aug-08 03:29N 54°22' E 010°09'0 0.0
2018-Aug-08 02:56N 54°22' E 010°09'0 0.0
2018-Aug-08 02:29N 54°22' E 010°09'0 0.0
2018-Aug-08 01:53N 54°22' E 010°09'0 0.0
2018-Aug-08 01:26N 54°22' E 010°09'0 0.0
2018-Aug-08 00:59N 54°22' E 010°09'0 0.0
2018-Aug-08 00:29N 54°22' E 010°09'0 0.0
2018-Aug-07 23:59N 54°22' E 010°09'0 0.0
2018-Aug-07 23:29N 54°22' E 010°09'0 0.0
2018-Aug-07 22:59N 54°22' E 010°09'0 0.0
2018-Aug-07 22:29N 54°22' E 010°09'0 0.0
2018-Aug-07 21:59N 54°22' E 010°09'0 0.0
2018-Aug-07 21:29N 54°22' E 010°09'0 0.0
2018-Aug-07 20:59N 54°22' E 010°09'0 0.0
2018-Aug-07 20:29N 54°22' E 010°09'0 0.0
2018-Aug-07 19:59N 54°22' E 010°09'0 0.0
2018-Aug-07 19:29N 54°22' E 010°09'0 0.0
2018-Aug-07 18:59N 54°22' E 010°09'0 0.0
2018-Aug-07 18:29N 54°22' E 010°09'0 0.0
2018-Aug-07 17:50N 54°22' E 010°09'0 0.0
2018-Aug-07 17:23N 54°22' E 010°09'0 0.0
2018-Aug-07 16:59N 54°22' E 010°09'0 0.0
2018-Aug-07 16:26N 54°22' E 010°09'0 0.0
2018-Aug-07 15:59N 54°22' E 010°09'0 0.0
2018-Aug-07 15:29N 54°22' E 010°09'0 0.0
2018-Aug-07 14:59N 54°22' E 010°09'0 0.0
2018-Aug-07 14:29N 54°22' E 010°09'0 0.6
2018-Aug-07 14:00N 54°22' E 010°09'0 0.9
2018-Aug-07 13:30N 54°22' E 010°08'3 6.6
2018-Aug-07 13:00N 54°22' E 010°02'4 7.4
2018-Aug-07 12:30N 54°20' E 009°56'4 7.5
2018-Aug-07 12:00N 54°22' E 009°50'4 7.4
2018-Aug-07 11:30N 54°20' E 009°45'4 7.2
2018-Aug-07 11:00N 54°18' E 009°41'3 6.6
2018-Aug-07 10:30N 54°15' E 009°37'3 6.9
2018-Aug-07 10:00N 54°12' E 009°34'4 7.7
2018-Aug-07 09:30N 54°11' E 009°28'4 7.8
2018-Aug-07 09:00N 54°09' E 009°22'4 7.5
2018-Aug-07 08:30N 54°05' E 009°19'4 8.0
2018-Aug-07 08:00N 54°01' E 009°18'4 7.6
2018-Aug-07 07:30N 53°58' E 009°15'4 7.8
2018-Aug-07 07:00N 53°55' E 009°11'2 3.9
2018-Aug-07 06:30N 53°54' E 009°09'0 0.4
2018-Aug-07 06:00N 53°54' E 009°09'2 4.1
2018-Aug-07 05:30N 53°53' E 009°05'2 3.6
2018-Aug-07 05:00N 53°52' E 009°03'4 8.9
2018-Aug-07 04:30N 53°51' E 008°56'4 8.8
2018-Aug-07 04:00N 53°50' E 008°48'4 7.9
2018-Aug-07 03:30N 53°53' E 008°43'4 7.8
2018-Aug-07 03:00N 53°56' E 008°39'4 7.5
2018-Aug-07 02:30N 53°58' E 008°34'3 6.8
2018-Aug-07 02:00N 53°59' E 008°28'3 6.2
2018-Aug-07 01:30N 53°59' E 008°23'3 6.1
2018-Aug-07 01:00N 53°60' E 008°18'4 7.3
2018-Aug-07 00:29N 53°59' E 008°11'5 6.9
2018-Aug-06 23:43N 53°58' E 008°02'2 6.9
2018-Aug-06 23:27N 53°58' E 007°59'3 6.8
2018-Aug-06 22:58N 53°57' E 007°54'3 6.3
2018-Aug-06 22:30N 53°56' E 007°49'3 6.3
2018-Aug-06 22:00N 53°56' E 007°44'3 6.1
2018-Aug-06 21:30N 53°55' E 007°39'3 6.0
2018-Aug-06 21:00N 53°54' E 007°34'3 6.1
2018-Aug-06 20:30N 53°54' E 007°29'3 6.2
2018-Aug-06 20:00N 53°53' E 007°24'9 6.4
2018-Aug-06 18:34N 53°51' E 007°08'1 6.5
2018-Aug-06 18:24N 53°50' E 007°07'3 6.5
2018-Aug-06 17:58N 53°50' E 007°02'3 6.7
2018-Aug-06 17:27N 53°49' E 006°56'5 7.0
2018-Aug-06 16:42N 53°48' E 006°48'1 7.3
2018-Aug-06 16:30N 53°47' E 006°45'5 7.5
2018-Aug-06 15:47N 53°46' E 006°36'2 7.9
2018-Aug-06 15:29N 53°46' E 006°33'4 7.7
2018-Aug-06 14:57N 53°45' E 006°26'4 8.2
2018-Aug-06 14:26N 53°44' E 006°19'4 8.4
2018-Aug-06 14:00N 53°42' E 006°13'4 8.8
2018-Aug-06 13:30N 53°41' E 006°06'4 8.9
2018-Aug-06 13:00N 53°40' E 005°59'4 8.9
2018-Aug-06 12:30N 53°38' E 005°52'4 8.7
2018-Aug-06 12:00N 53°37' E 005°45'4 8.8
2018-Aug-06 11:30N 53°35' E 005°38'4 8.9
2018-Aug-06 11:00N 53°34' E 005°31'4 8.7
2018-Aug-06 10:30N 53°33' E 005°24'4 8.3
2018-Aug-06 10:00N 53°31' E 005°17'4 8.0
2018-Aug-06 09:29N 53°30' E 005°11'4 7.7
2018-Aug-06 09:00N 53°28' E 005°06'4 7.5
2018-Aug-06 08:30N 53°25' E 005°01'4 7.3
2018-Aug-06 08:00N 53°22' E 004°58'4 7.2
2018-Aug-06 07:30N 53°19' E 005°01'4 8.4
2018-Aug-06 07:00N 53°20' E 005°08'4 7.8
2018-Aug-06 06:30N 53°16' E 005°10'4 7.9
2018-Aug-06 06:00N 53°14' E 005°16'4 8.4
2018-Aug-06 05:30N 53°11' E 005°21'2 5.0
2018-Aug-06 05:00N 53°10' E 005°25'0 0.0
2018-Aug-06 04:30N 53°10' E 005°25'0 0.0
2018-Aug-06 04:00N 53°10' E 005°25'0 0.0
2018-Aug-06 03:30N 53°10' E 005°25'0 0.0
2018-Aug-06 03:00N 53°10' E 005°25'0 0.0
2018-Aug-06 02:30N 53°10' E 005°25'0 0.0
2018-Aug-06 02:00N 53°10' E 005°25'0 0.0
2018-Aug-06 01:30N 53°10' E 005°25'0 0.0
2018-Aug-06 01:00N 53°10' E 005°25'0 0.0
2018-Aug-06 00:30N 53°10' E 005°25'0 0.0
2018-Aug-06 00:00N 53°10' E 005°25'0 0.0
2018-Aug-05 23:30N 53°10' E 005°25'0 0.0
2018-Aug-05 23:00N 53°10' E 005°25'0 0.0
2018-Aug-05 22:30N 53°10' E 005°25'0 0.0
2018-Aug-05 22:00N 53°10' E 005°25'0 0.0
2018-Aug-05 21:30N 53°10' E 005°25'0 0.0
2018-Aug-05 21:00N 53°10' E 005°25'0 0.0
2018-Aug-05 20:30N 53°10' E 005°25'0 0.2
2018-Aug-05 20:00N 53°10' E 005°25'2 3.7
2018-Aug-05 19:30N 53°11' E 005°22'2 4.5
2018-Aug-05 19:00N 53°12' E 005°18'0 0.9
2018-Aug-05 18:30N 53°12' E 005°19'3 6.5
2018-Aug-05 18:00N 53°11' E 005°24'0 0.7
2018-Aug-05 17:30N 53°10' E 005°25'0 0.4
2018-Aug-05 17:00N 53°10' E 005°25'0 0.0
2018-Aug-05 16:30N 53°10' E 005°25'0 0.0
2018-Aug-05 16:00N 53°10' E 005°25'0 0.0
2018-Aug-05 15:30N 53°10' E 005°25'0 0.0
2018-Aug-05 15:00N 53°10' E 005°25'3 3.3
2018-Aug-05 14:00N 53°11' E 005°20'3 5.8
2018-Aug-05 13:30N 53°11' E 005°24'0 0.9
2018-Aug-05 13:00N 53°10' E 005°25'0 0.0
2018-Aug-05 12:30N 53°10' E 005°25'0 0.0
2018-Aug-05 12:00N 53°10' E 005°25'0 0.0
2018-Aug-05 11:30N 53°10' E 005°25'0 0.0
2018-Aug-05 11:00N 53°10' E 005°25'0 0.0
2018-Aug-05 10:30N 53°10' E 005°25'0 0.0
2018-Aug-05 10:00N 53°10' E 005°25'0 0.0
2018-Aug-05 09:30N 53°10' E 005°25'0 0.0
2018-Aug-05 09:00N 53°10' E 005°25'0 0.0
2018-Aug-05 08:30N 53°10' E 005°25'0 0.0
2018-Aug-05 08:00N 53°10' E 005°25'0 0.0
2018-Aug-05 07:30N 53°10' E 005°25'0 0.0
2018-Aug-05 07:00N 53°10' E 005°25'0 0.0
2018-Aug-05 06:30N 53°10' E 005°25'0 0.0
2018-Aug-05 06:00N 53°10' E 005°25'0 0.0
2018-Aug-05 05:30N 53°10' E 005°25'0 0.0
2018-Aug-05 05:00N 53°10' E 005°25'0 0.0
2018-Aug-05 04:30N 53°10' E 005°25'0 0.0
2018-Aug-05 04:00N 53°10' E 005°25'0 0.0
2018-Aug-05 03:30N 53°10' E 005°25'0 0.0
2018-Aug-05 03:00N 53°10' E 005°25'0 0.0
2018-Aug-05 02:30N 53°10' E 005°25'0 0.0
2018-Aug-05 02:00N 53°10' E 005°25'0 0.0
2018-Aug-05 01:30N 53°10' E 005°25'0 0.0
2018-Aug-05 01:00N 53°10' E 005°25'0 0.0
2018-Aug-05 00:30N 53°10' E 005°25'0 0.0
2018-Aug-05 00:00N 53°10' E 005°25'0 0.0
2018-Aug-04 23:30N 53°10' E 005°25'0 0.0
2018-Aug-04 23:00N 53°10' E 005°25'0 0.0
2018-Aug-04 22:30N 53°10' E 005°25'0 0.0
2018-Aug-04 22:00N 53°10' E 005°25'0 0.0
2018-Aug-04 21:30N 53°10' E 005°25'0 0.0
2018-Aug-04 21:00N 53°10' E 005°25'1 1.4
2018-Aug-04 20:30N 53°11' E 005°24'3 5.6
2018-Aug-04 20:00N 53°11' E 005°19'2 4.7
2018-Aug-04 19:30N 53°13' E 005°17'0 0.9
2018-Aug-04 19:00N 53°13' E 005°18'3 6.6
2018-Aug-04 18:30N 53°11' E 005°22'2 3.8
2018-Aug-04 18:01N 53°10' E 005°25'0 0.0
2018-Aug-04 17:30N 53°10' E 005°25'0 0.0
2018-Aug-04 17:01N 53°10' E 005°25'0 0.0
2018-Aug-04 16:30N 53°10' E 005°25'0 0.0
2018-Aug-04 16:00N 53°10' E 005°25'0 0.0
2018-Aug-04 15:31N 53°10' E 005°25'0 0.0
2018-Aug-04 15:00N 53°10' E 005°25'0 0.2
2018-Aug-04 14:30N 53°10' E 005°25'2 4.0
2018-Aug-04 14:00N 53°11' E 005°22'2 4.7
2018-Aug-04 13:30N 53°12' E 005°18'2 3.3
2018-Aug-04 13:00N 53°14' E 005°17'1 2.7
2018-Aug-04 12:30N 53°13' E 005°18'2 4.1
2018-Aug-04 12:00N 53°11' E 005°21'2 4.2
2018-Aug-04 11:30N 53°11' E 005°24'1 1.0
2018-Aug-04 10:58N 53°10' E 005°25'0 0.0
2018-Aug-04 10:28N 53°10' E 005°25'0 0.0
2018-Aug-04 09:58N 53°10' E 005°25'0 0.1
2018-Aug-04 09:28N 53°10' E 005°25'0 0.0
2018-Aug-04 08:58N 53°10' E 005°25'0 0.0
2018-Aug-04 08:28N 53°10' E 005°25'0 0.0
2018-Aug-04 07:58N 53°10' E 005°25'0 0.0
2018-Aug-04 07:28N 53°10' E 005°25'  
Track history (hours):
 
Tides and Currents Weather Stations Pressure Air Temp Water Temp Dewpoint Dewpoint Depression Visibility Wind Speed Wind Dir Waves Ship Positions

Artemis (Netherlands)

Ship's website: http://www.tallship-company.com/artemis/gb_artemis.htm

Last reported at 2018-Aug-14 07:00 UTC. Time now 2018-Aug-14 07:04 UTC.
Position N 55°33' E 012°43'.

Length 59 m; draft 3.4 m.

Type: Sailing vessel. MMSI: 244875000.

Date/timePositionNaut miles runAvg speedWind from/ knotsBaromVisibWave heightAir tempDewpointWater temp
2018-Aug-14 07:00N 55°33' E 012°43'2 4.7
2018-Aug-14 06:31N 55°30' E 012°43'2 4.7
2018-Aug-14 06:00N 55°28' E 012°43'2 4.8
2018-Aug-14 05:30N 55°25' E 012°43'2 5.0
2018-Aug-14 05:01N 55°23' E 012°42'3 5.0
2018-Aug-14 04:30N 55°20' E 012°41'2 4.7
2018-Aug-14 04:00N 55°18' E 012°41'3 5.1
2018-Aug-14 03:30N 55°16' E 012°40'2 4.9
2018-Aug-14 03:00N 55°13' E 012°40'3 5.0
2018-Aug-14 02:29N 55°11' E 012°39'2 4.9
2018-Aug-14 01:59N 55°08' E 012°38'5 4.8
2018-Aug-14 00:56N 55°03' E 012°38'2 4.6
2018-Aug-14 00:29N 55°01' E 012°37'2 4.0
2018-Aug-14 00:01N 54°59' E 012°37'6 5.0
2018-Aug-13 22:43N 54°53' E 012°32'5 4.5
2018-Aug-13 21:38N 54°50' E 012°26'1 5.2
2018-Aug-13 21:30N 54°49' E 012°25'2 4.7
2018-Aug-13 21:00N 54°48' E 012°23'2 3.6
2018-Aug-13 20:30N 54°46' E 012°20'2 4.0
2018-Aug-13 20:00N 54°45' E 012°18'2 3.6
2018-Aug-13 19:31N 54°43' E 012°17'1 2.1
2018-Aug-13 19:00N 54°42' E 012°16'1 2.4
2018-Aug-13 18:30N 54°42' E 012°14'2 4.3
2018-Aug-13 18:00N 54°40' E 012°12'3 5.6
2018-Aug-13 17:30N 54°38' E 012°10'2 3.1
2018-Aug-13 17:00N 54°36' E 012°08'2 3.4
2018-Aug-13 16:30N 54°35' E 012°08'2 4.8
2018-Aug-13 16:01N 54°32' E 012°06'2 4.6
2018-Aug-13 15:31N 54°30' E 012°05'2 4.6
2018-Aug-13 15:01N 54°28' E 012°05'2 4.7
2018-Aug-13 14:31N 54°26' E 012°04'2 4.7
2018-Aug-13 14:01N 54°23' E 012°04'2 3.6
2018-Aug-13 13:31N 54°21' E 012°05'2 3.3
2018-Aug-13 13:00N 54°20' E 012°05'2 3.3
2018-Aug-13 12:30N 54°18' E 012°05'2 3.2
2018-Aug-13 12:00N 54°17' E 012°05'2 3.6
2018-Aug-13 11:30N 54°15' E 012°05'1 2.8
2018-Aug-13 11:01N 54°13' E 012°05'1 1.5
2018-Aug-13 10:30N 54°13' E 012°06'2 4.8
2018-Aug-13 10:00N 54°10' E 012°06'3 5.4
2018-Aug-13 09:31N 54°08' E 012°06'2 4.5
2018-Aug-13 09:00N 54°06' E 012°07'0 0.0
2018-Aug-13 08:30N 54°06' E 012°07'0 0.0
2018-Aug-13 08:01N 54°06' E 012°07'0 0.0
2018-Aug-13 07:28N 54°06' E 012°07'0 0.0
2018-Aug-13 07:00N 54°06' E 012°07'0 0.0
2018-Aug-13 06:30N 54°06' E 012°07'0 0.0
2018-Aug-13 06:00N 54°06' E 012°07'0 0.0
2018-Aug-13 05:30N 54°06' E 012°07'0 0.0
2018-Aug-13 02:30N 54°06' E 012°07'0 0.0
2018-Aug-13 02:00N 54°06' E 012°07'0 0.0
2018-Aug-13 01:24N 54°06' E 012°07'0 0.0
2018-Aug-13 01:00N 54°06' E 012°07'0 0.0
2018-Aug-13 00:28N 54°06' E 012°07'0 0.0
2018-Aug-13 00:01N 54°06' E 012°07'0 0.0
2018-Aug-12 23:17N 54°06' E 012°07'0 0.0
2018-Aug-12 22:55N 54°06' E 012°07'0 0.0
2018-Aug-12 20:59N 54°06' E 012°07'0 0.0
2018-Aug-12 20:28N 54°06' E 012°07'0 0.0
2018-Aug-12 19:26N 54°06' E 012°07'0 0.0
2018-Aug-12 18:00N 54°06' E 012°07'0 0.0
2018-Aug-12 17:13N 54°06' E 012°07'0 0.0
2018-Aug-12 15:43N 54°06' E 012°07'1 3.1
2018-Aug-12 15:24N 54°06' E 012°06'2 5.8
2018-Aug-12 15:00N 54°09' E 012°06'3 6.7
2018-Aug-12 14:29N 54°12' E 012°06'1 2.2
2018-Aug-12 14:00N 54°13' E 012°06'1 1.9
2018-Aug-12 13:29N 54°12' E 012°06'2 4.3
2018-Aug-12 13:00N 54°10' E 012°06'3 5.2
2018-Aug-12 12:24N 54°07' E 012°06'2 1.2
2018-Aug-12 11:01N 54°06' E 012°07'0 0.4
2018-Aug-12 10:50N 54°06' E 012°07'2 5.0
2018-Aug-12 10:28N 54°07' E 012°06'2 4.8
2018-Aug-12 10:00N 54°09' E 012°06'3 4.7
2018-Aug-12 09:26N 54°12' E 012°04'0 0.3
2018-Aug-12 09:01N 54°12' E 012°04'2 4.0
2018-Aug-12 08:28N 54°10' E 012°06'1 3.1
2018-Aug-12 08:00N 54°09' E 012°06'2 4.4
2018-Aug-12 07:30N 54°07' E 012°06'1 1.1
2018-Aug-12 06:20N 54°06' E 012°07'0 0.0
2018-Aug-12 05:58N 54°06' E 012°07'0 0.0
2018-Aug-12 05:22N 54°06' E 012°07'0 0.0
2018-Aug-12 04:22N 54°06' E 012°07'0 0.0
2018-Aug-12 03:52N 54°06' E 012°07'0 0.0
2018-Aug-12 03:29N 54°06' E 012°07'0 0.0
2018-Aug-12 02:01N 54°06' E 012°07'0 0.0
2018-Aug-11 23:57N 54°06' E 012°07'0 0.0
2018-Aug-11 23:30N 54°06' E 012°07'0 0.0
2018-Aug-11 23:00N 54°06' E 012°07'0 0.0
2018-Aug-11 22:28N 54°06' E 012°07'0 0.0
2018-Aug-11 21:34N 54°06' E 012°07'0 0.0
2018-Aug-11 21:21N 54°06' E 012°07'0 0.3
2018-Aug-11 20:37N 54°06' E 012°07'1 3.9
2018-Aug-11 20:23N 54°06' E 012°06'2 3.0
2018-Aug-11 19:44N 54°08' E 012°06'1 3.4
2018-Aug-11 19:28N 54°09' E 012°06'1 3.1
2018-Aug-11 19:00N 54°11' E 012°06'1 1.0
2018-Aug-11 18:30N 54°10' E 012°06'2 2.9
2018-Aug-11 17:59N 54°09' E 012°06'2 4.3
2018-Aug-11 17:30N 54°07' E 012°06'1 1.8
2018-Aug-11 16:49N 54°06' E 012°07'1 1.7
2018-Aug-11 16:18N 54°06' E 012°06'2 6.3
2018-Aug-11 15:58N 54°08' E 012°06'2 4.2
2018-Aug-11 15:28N 54°10' E 012°07'0 0.6
2018-Aug-11 14:57N 54°10' E 012°07'0 0.5
2018-Aug-11 14:25N 54°10' E 012°07'1 1.7
2018-Aug-11 14:00N 54°10' E 012°06'2 3.6
2018-Aug-11 13:30N 54°12' E 012°04'3 3.3
2018-Aug-11 12:40N 54°10' E 012°07'0 0.2
2018-Aug-11 12:28N 54°10' E 012°07'1 1.4
2018-Aug-11 12:00N 54°10' E 012°06'1 0.5
2018-Aug-11 10:13N 54°10' E 012°07'0 0.0
2018-Aug-11 09:56N 54°10' E 012°07'0 0.0
2018-Aug-11 09:31N 54°10' E 012°07'0 0.0
2018-Aug-11 09:00N 54°10' E 012°07'5 0.4
2018-Aug-10 21:30N 54°06' E 012°07'4 4.9
2018-Aug-10 20:40N 54°10' E 012°06'1 6.4
2018-Aug-10 20:27N 54°11' E 012°05'2 3.0
2018-Aug-10 19:50N 54°13' E 012°07'1 1.6
2018-Aug-10 19:30N 54°13' E 012°07'1 2.0
2018-Aug-10 19:00N 54°13' E 012°06'7 2.7
2018-Aug-10 16:25N 54°06' E 012°07'0 0.0
2018-Aug-10 12:04N 54°06' E 012°07'0 0.0
2018-Aug-10 11:43N 54°06' E 012°07'0 0.0
2018-Aug-10 11:19N 54°06' E 012°07'0 0.0
2018-Aug-10 10:49N 54°06' E 012°07'0 0.0
2018-Aug-10 06:55N 54°06' E 012°07'0 0.0
2018-Aug-10 06:19N 54°06' E 012°07'0 0.0
2018-Aug-10 03:43N 54°06' E 012°07'0 0.0
2018-Aug-09 20:51N 54°06' E 012°07'0 0.0
2018-Aug-09 20:30N 54°06' E 012°07'2 3.9
2018-Aug-09 19:53N 54°08' E 012°06'2 5.2
2018-Aug-09 19:26N 54°10' E 012°06'1 2.0
2018-Aug-09 19:00N 54°11' E 012°05'1 2.0
2018-Aug-09 18:30N 54°10' E 012°06'3 4.3
2018-Aug-09 17:55N 54°08' E 012°06'1 3.0
2018-Aug-09 17:30N 54°06' E 012°06'1 0.5
2018-Aug-09 15:13N 54°06' E 012°07'0 0.0
2018-Aug-09 14:58N 54°06' E 012°07'0 0.0
2018-Aug-09 14:10N 54°06' E 012°07'0 0.0
2018-Aug-09 06:07N 54°06' E 012°07'0 0.0
2018-Aug-09 04:13N 54°06' E 012°07'0 0.0
2018-Aug-09 03:55N 54°06' E 012°07'0 0.0
2018-Aug-09 02:10N 54°06' E 012°07'0 0.0
2018-Aug-09 00:55N 54°06' E 012°07'0 0.0
2018-Aug-09 00:28N 54°06' E 012°07'0 0.0
2018-Aug-08 23:55N 54°06' E 012°07'0 0.0
2018-Aug-08 23:22N 54°06' E 012°07'0 0.0
2018-Aug-08 22:43N 54°06' E 012°07'0 0.0
2018-Aug-08 21:13N 54°06' E 012°07'0 0.1
2018-Aug-08 18:59N 54°06' E 012°07'5 5.9
2018-Aug-08 18:11N 54°10' E 012°06'1 6.9
2018-Aug-08 18:00N 54°11' E 012°05'2 4.4
2018-Aug-08 17:30N 54°13' E 012°02'4 7.9
2018-Aug-08 17:00N 54°15' E 011°57'4 8.6
2018-Aug-08 16:30N 54°17' E 011°50'4 8.4
2018-Aug-08 16:00N 54°20' E 011°44'4 8.1
2018-Aug-08 15:30N 54°22' E 011°39'4 7.9
2018-Aug-08 15:00N 54°24' E 011°33'4 7.8
2018-Aug-08 14:30N 54°27' E 011°28'1 1.8
2018-Aug-08 14:00N 54°27' E 011°27'4 7.0
2018-Aug-08 13:30N 54°29' E 011°21'4 7.1
2018-Aug-08 13:00N 54°31' E 011°16'4 7.6
2018-Aug-08 12:30N 54°33' E 011°11'4 8.3
2018-Aug-08 12:00N 54°33' E 011°04'4 7.7
2018-Aug-08 11:30N 54°32' E 010°57'4 7.6
2018-Aug-08 11:00N 54°31' E 010°51'4 7.4
2018-Aug-08 10:30N 54°31' E 010°44'4 7.7
2018-Aug-08 10:00N 54°30' E 010°38'4 8.1
2018-Aug-08 09:30N 54°29' E 010°31'4 8.0
2018-Aug-08 09:00N 54°29' E 010°24'4 7.6
2018-Aug-08 08:30N 54°28' E 010°18'4 7.1
2018-Aug-08 08:00N 54°26' E 010°14'4 7.6
2018-Aug-08 07:30N 54°22' E 010°10'1 1.1
2018-Aug-08 06:59N 54°22' E 010°09'0 0.0
2018-Aug-08 06:26N 54°22' E 010°09'0 0.0
2018-Aug-08 05:59N 54°22' E 010°09'0 0.0
2018-Aug-08 05:26N 54°22' E 010°09'0 0.0
2018-Aug-08 04:59N 54°22' E 010°09'0 0.0
2018-Aug-08 04:26N 54°22' E 010°09'0 0.0
2018-Aug-08 03:59N 54°22' E 010°09'0 0.0
2018-Aug-08 03:29N 54°22' E 010°09'0 0.0
2018-Aug-08 02:56N 54°22' E 010°09'0 0.0
2018-Aug-08 02:29N 54°22' E 010°09'0 0.0
2018-Aug-08 01:53N 54°22' E 010°09'0 0.0
2018-Aug-08 01:26N 54°22' E 010°09'0 0.0
2018-Aug-08 00:59N 54°22' E 010°09'0 0.0
2018-Aug-08 00:29N 54°22' E 010°09'0 0.0
2018-Aug-07 23:59N 54°22' E 010°09'0 0.0
2018-Aug-07 23:29N 54°22' E 010°09'0 0.0
2018-Aug-07 22:59N 54°22' E 010°09'0 0.0
2018-Aug-07 22:29N 54°22' E 010°09'0 0.0
2018-Aug-07 21:59N 54°22' E 010°09'0 0.0
2018-Aug-07 21:29N 54°22' E 010°09'0 0.0
2018-Aug-07 20:59N 54°22' E 010°09'0 0.0
2018-Aug-07 20:29N 54°22' E 010°09'0 0.0
2018-Aug-07 19:59N 54°22' E 010°09'0 0.0
2018-Aug-07 19:29N 54°22' E 010°09'0 0.0
2018-Aug-07 18:59N 54°22' E 010°09'0 0.0
2018-Aug-07 18:29N 54°22' E 010°09'0 0.0
2018-Aug-07 17:50N 54°22' E 010°09'0 0.0
2018-Aug-07 17:23N 54°22' E 010°09'0 0.0
2018-Aug-07 16:59N 54°22' E 010°09'0 0.0
2018-Aug-07 16:26N 54°22' E 010°09'0 0.0
2018-Aug-07 15:59N 54°22' E 010°09'0 0.0
2018-Aug-07 15:29N 54°22' E 010°09'0 0.0
2018-Aug-07 14:59N 54°22' E 010°09'0 0.0
2018-Aug-07 14:29N 54°22' E 010°09'0 0.6
2018-Aug-07 14:00N 54°22' E 010°09'0 0.9
2018-Aug-07 13:30N 54°22' E 010°08'3 6.6
2018-Aug-07 13:00N 54°22' E 010°02'4 7.4
2018-Aug-07 12:30N 54°20' E 009°56'4 7.5
2018-Aug-07 12:00N 54°22' E 009°50'4 7.4
2018-Aug-07 11:30N 54°20' E 009°45'4 7.2
2018-Aug-07 11:00N 54°18' E 009°41'3 6.6
2018-Aug-07 10:30N 54°15' E 009°37'3 6.9
2018-Aug-07 10:00N 54°12' E 009°34'4 7.7
2018-Aug-07 09:30N 54°11' E 009°28'4 7.8
2018-Aug-07 09:00N 54°09' E 009°22'4 7.5
2018-Aug-07 08:30N 54°05' E 009°19'4 8.0
2018-Aug-07 08:00N 54°01' E 009°18'4 7.6
2018-Aug-07 07:30N 53°58' E 009°15'4 7.8
2018-Aug-07 07:00N 53°55' E 009°11'2 3.9
2018-Aug-07 06:30N 53°54' E 009°09'0 0.4
2018-Aug-07 06:00N 53°54' E 009°09'2 4.1
2018-Aug-07 05:30N 53°53' E 009°05'2 3.6
2018-Aug-07 05:00N 53°52' E 009°03'4 8.9
2018-Aug-07 04:30N 53°51' E 008°56'4 8.8
2018-Aug-07 04:00N 53°50' E 008°48'4 7.9
2018-Aug-07 03:30N 53°53' E 008°43'4 7.8
2018-Aug-07 03:00N 53°56' E 008°39'4 7.5
2018-Aug-07 02:30N 53°58' E 008°34'3 6.8
2018-Aug-07 02:00N 53°59' E 008°28'3 6.2
2018-Aug-07 01:30N 53°59' E 008°23'3 6.1
2018-Aug-07 01:00N 53°60' E 008°18'4 7.3
2018-Aug-07 00:29N 53°59' E 008°11'5 6.9
2018-Aug-06 23:43N 53°58' E 008°02'2 6.9
2018-Aug-06 23:27N 53°58' E 007°59'3 6.8
2018-Aug-06 22:58N 53°57' E 007°54'3 6.3
2018-Aug-06 22:30N 53°56' E 007°49'3 6.3
2018-Aug-06 22:00N 53°56' E 007°44'3 6.1
2018-Aug-06 21:30N 53°55' E 007°39'3 6.0
2018-Aug-06 21:00N 53°54' E 007°34'3 6.1
2018-Aug-06 20:30N 53°54' E 007°29'3 6.2
2018-Aug-06 20:00N 53°53' E 007°24'9 6.4
2018-Aug-06 18:34N 53°51' E 007°08'1 6.5
2018-Aug-06 18:24N 53°50' E 007°07'3 6.5
2018-Aug-06 17:58N 53°50' E 007°02'3 6.7
2018-Aug-06 17:27N 53°49' E 006°56'5 7.0
2018-Aug-06 16:42N 53°48' E 006°48'1 7.3
2018-Aug-06 16:30N 53°47' E 006°45'5 7.5
2018-Aug-06 15:47N 53°46' E 006°36'2 7.9
2018-Aug-06 15:29N 53°46' E 006°33'4 7.7
2018-Aug-06 14:57N 53°45' E 006°26'4 8.2
2018-Aug-06 14:26N 53°44' E 006°19'4 8.4
2018-Aug-06 14:00N 53°42' E 006°13'4 8.8
2018-Aug-06 13:30N 53°41' E 006°06'4 8.9
2018-Aug-06 13:00N 53°40' E 005°59'4 8.9
2018-Aug-06 12:30N 53°38' E 005°52'4 8.7
2018-Aug-06 12:00N 53°37' E 005°45'4 8.8
2018-Aug-06 11:30N 53°35' E 005°38'4 8.9
2018-Aug-06 11:00N 53°34' E 005°31'4 8.7
2018-Aug-06 10:30N 53°33' E 005°24'4 8.3
2018-Aug-06 10:00N 53°31' E 005°17'4 8.0
2018-Aug-06 09:29N 53°30' E 005°11'4 7.7
2018-Aug-06 09:00N 53°28' E 005°06'4 7.5
2018-Aug-06 08:30N 53°25' E 005°01'4 7.3
2018-Aug-06 08:00N 53°22' E 004°58'4 7.2
2018-Aug-06 07:30N 53°19' E 005°01'4 8.4
2018-Aug-06 07:00N 53°20' E 005°08'4 7.8
2018-Aug-06 06:30N 53°16' E 005°10'4 7.9
2018-Aug-06 06:00N 53°14' E 005°16'4 8.4
2018-Aug-06 05:30N 53°11' E 005°21'2 5.0
2018-Aug-06 05:00N 53°10' E 005°25'0 0.0
2018-Aug-06 04:30N 53°10' E 005°25'0 0.0
2018-Aug-06 04:00N 53°10' E 005°25'0 0.0
2018-Aug-06 03:30N 53°10' E 005°25'0 0.0
2018-Aug-06 03:00N 53°10' E 005°25'0 0.0
2018-Aug-06 02:30N 53°10' E 005°25'0 0.0
2018-Aug-06 02:00N 53°10' E 005°25'0 0.0
2018-Aug-06 01:30N 53°10' E 005°25'0 0.0
2018-Aug-06 01:00N 53°10' E 005°25'0 0.0
2018-Aug-06 00:30N 53°10' E 005°25'0 0.0
2018-Aug-06 00:00N 53°10' E 005°25'0 0.0
2018-Aug-05 23:30N 53°10' E 005°25'0 0.0
2018-Aug-05 23:00N 53°10' E 005°25'0 0.0
2018-Aug-05 22:30N 53°10' E 005°25'0 0.0
2018-Aug-05 22:00N 53°10' E 005°25'0 0.0
2018-Aug-05 21:30N 53°10' E 005°25'0 0.0
2018-Aug-05 21:00N 53°10' E 005°25'0 0.0
2018-Aug-05 20:30N 53°10' E 005°25'0 0.2
2018-Aug-05 20:00N 53°10' E 005°25'2 3.7
2018-Aug-05 19:30N 53°11' E 005°22'2 4.5
2018-Aug-05 19:00N 53°12' E 005°18'0 0.9
2018-Aug-05 18:30N 53°12' E 005°19'3 6.5
2018-Aug-05 18:00N 53°11' E 005°24'0 0.7
2018-Aug-05 17:30N 53°10' E 005°25'0 0.4
2018-Aug-05 17:00N 53°10' E 005°25'0 0.0
2018-Aug-05 16:30N 53°10' E 005°25'0 0.0
2018-Aug-05 16:00N 53°10' E 005°25'0 0.0
2018-Aug-05 15:30N 53°10' E 005°25'0 0.0
2018-Aug-05 15:00N 53°10' E 005°25'3 3.3
2018-Aug-05 14:00N 53°11' E 005°20'3 5.8
2018-Aug-05 13:30N 53°11' E 005°24'0 0.9
2018-Aug-05 13:00N 53°10' E 005°25'0 0.0
2018-Aug-05 12:30N 53°10' E 005°25'0 0.0
2018-Aug-05 12:00N 53°10' E 005°25'0 0.0
2018-Aug-05 11:30N 53°10' E 005°25'0 0.0
2018-Aug-05 11:00N 53°10' E 005°25'0 0.0
2018-Aug-05 10:30N 53°10' E 005°25'0 0.0
2018-Aug-05 10:00N 53°10' E 005°25'0 0.0
2018-Aug-05 09:30N 53°10' E 005°25'0 0.0
2018-Aug-05 09:00N 53°10' E 005°25'0 0.0
2018-Aug-05 08:30N 53°10' E 005°25'0 0.0
2018-Aug-05 08:00N 53°10' E 005°25'0 0.0
2018-Aug-05 07:30N 53°10' E 005°25'0 0.0
2018-Aug-05 07:00N 53°10' E 005°25'0 0.0
2018-Aug-05 06:30N 53°10' E 005°25'0 0.0
2018-Aug-05 06:00N 53°10' E 005°25'0 0.0
2018-Aug-05 05:30N 53°10' E 005°25'0 0.0
2018-Aug-05 05:00N 53°10' E 005°25'0 0.0
2018-Aug-05 04:30N 53°10' E 005°25'0 0.0
2018-Aug-05 04:00N 53°10' E 005°25'0 0.0
2018-Aug-05 03:30N 53°10' E 005°25'0 0.0
2018-Aug-05 03:00N 53°10' E 005°25'0 0.0
2018-Aug-05 02:30N 53°10' E 005°25'0 0.0
2018-Aug-05 02:00N 53°10' E 005°25'0 0.0
2018-Aug-05 01:30N 53°10' E 005°25'0 0.0
2018-Aug-05 01:00N 53°10' E 005°25'0 0.0
2018-Aug-05 00:30N 53°10' E 005°25'0 0.0
2018-Aug-05 00:00N 53°10' E 005°25'0 0.0
2018-Aug-04 23:30N 53°10' E 005°25'0 0.0
2018-Aug-04 23:00N 53°10' E 005°25'0 0.0
2018-Aug-04 22:30N 53°10' E 005°25'0 0.0
2018-Aug-04 22:00N 53°10' E 005°25'0 0.0
2018-Aug-04 21:30N 53°10' E 005°25'0 0.0
2018-Aug-04 21:00N 53°10' E 005°25'1 1.4
2018-Aug-04 20:30N 53°11' E 005°24'3 5.6
2018-Aug-04 20:00N 53°11' E 005°19'2 4.7
2018-Aug-04 19:30N 53°13' E 005°17'0 0.9
2018-Aug-04 19:00N 53°13' E 005°18'3 6.6
2018-Aug-04 18:30N 53°11' E 005°22'2 3.8
2018-Aug-04 18:01N 53°10' E 005°25'0 0.0
2018-Aug-04 17:30N 53°10' E 005°25'0 0.0
2018-Aug-04 17:01N 53°10' E 005°25'0 0.0
2018-Aug-04 16:30N 53°10' E 005°25'0 0.0
2018-Aug-04 16:00N 53°10' E 005°25'0 0.0
2018-Aug-04 15:31N 53°10' E 005°25'0 0.0
2018-Aug-04 15:00N 53°10' E 005°25'0 0.2
2018-Aug-04 14:30N 53°10' E 005°25'2 4.0
2018-Aug-04 14:00N 53°11' E 005°22'2 4.7
2018-Aug-04 13:30N 53°12' E 005°18'2 3.3
2018-Aug-04 13:00N 53°14' E 005°17'1 2.7
2018-Aug-04 12:30N 53°13' E 005°18'2 4.1
2018-Aug-04 12:00N 53°11' E 005°21'2 4.2
2018-Aug-04 11:30N 53°11' E 005°24'1 1.0
2018-Aug-04 10:58N 53°10' E 005°25'0 0.0
2018-Aug-04 10:28N 53°10' E 005°25'0 0.0
2018-Aug-04 09:58N 53°10' E 005°25'0 0.1
2018-Aug-04 09:28N 53°10' E 005°25'0 0.0
2018-Aug-04 08:58N 53°10' E 005°25'0 0.0
2018-Aug-04 08:28N 53°10' E 005°25'0 0.0
2018-Aug-04 07:58N 53°10' E 005°25'0 0.0
2018-Aug-04 07:28N 53°10' E 005°25'  

Dump ship's entire track history